sensor_id;sensor_type;location;lat;lon;timestamp;pressure;altitude;pressure_sealevel;temperature
60966;BMP180;46834;51.100;6.886;2022-07-15T00:01:46;101750.00;;;24.70
60966;BMP180;46834;51.100;6.886;2022-07-15T00:04:12;101747.00;;;24.70
60966;BMP180;46834;51.100;6.886;2022-07-15T00:06:38;101753.00;;;24.70
60966;BMP180;46834;51.100;6.886;2022-07-15T00:09:03;101753.00;;;24.60
60966;BMP180;46834;51.100;6.886;2022-07-15T00:11:29;101753.00;;;24.60
60966;BMP180;46834;51.100;6.886;2022-07-15T00:13:55;101751.00;;;24.60
60966;BMP180;46834;51.100;6.886;2022-07-15T00:16:21;101750.00;;;24.60
60966;BMP180;46834;51.100;6.886;2022-07-15T00:18:47;101748.00;;;24.60
60966;BMP180;46834;51.100;6.886;2022-07-15T00:21:12;101741.00;;;24.50
60966;BMP180;46834;51.100;6.886;2022-07-15T00:23:38;101752.00;;;24.50
60966;BMP180;46834;51.100;6.886;2022-07-15T00:26:04;101750.00;;;24.50
60966;BMP180;46834;51.100;6.886;2022-07-15T00:28:30;101745.00;;;24.50
60966;BMP180;46834;51.100;6.886;2022-07-15T00:30:56;101748.00;;;24.50
60966;BMP180;46834;51.100;6.886;2022-07-15T00:33:22;101747.00;;;24.40
60966;BMP180;46834;51.100;6.886;2022-07-15T00:35:47;101750.00;;;24.40
60966;BMP180;46834;51.100;6.886;2022-07-15T00:38:13;101745.00;;;24.40
60966;BMP180;46834;51.100;6.886;2022-07-15T00:40:48;101742.00;;;24.30
60966;BMP180;46834;51.100;6.886;2022-07-15T00:43:17;101747.00;;;24.30
60966;BMP180;46834;51.100;6.886;2022-07-15T00:45:44;101738.00;;;24.30
60966;BMP180;46834;51.100;6.886;2022-07-15T00:48:10;101741.00;;;24.30
60966;BMP180;46834;51.100;6.886;2022-07-15T00:50:37;101748.00;;;24.30
60966;BMP180;46834;51.100;6.886;2022-07-15T00:53:07;101728.00;;;24.20
60966;BMP180;46834;51.100;6.886;2022-07-15T00:55:43;101746.00;;;24.20
60966;BMP180;46834;51.100;6.886;2022-07-15T00:58:16;101743.00;;;24.10
60966;BMP180;46834;51.100;6.886;2022-07-15T01:00:43;101740.00;;;24.10
60966;BMP180;46834;51.100;6.886;2022-07-15T01:03:09;101742.00;;;24.10
60966;BMP180;46834;51.100;6.886;2022-07-15T01:05:37;101730.00;;;24.10
60966;BMP180;46834;51.100;6.886;2022-07-15T01:08:03;101740.00;;;24.00
60966;BMP180;46834;51.100;6.886;2022-07-15T01:10:29;101739.00;;;24.00
60966;BMP180;46834;51.100;6.886;2022-07-15T01:12:55;101741.00;;;24.00
60966;BMP180;46834;51.100;6.886;2022-07-15T01:15:21;101747.00;;;24.00
60966;BMP180;46834;51.100;6.886;2022-07-15T01:17:47;101749.00;;;23.90
60966;BMP180;46834;51.100;6.886;2022-07-15T01:20:14;101737.00;;;23.90
60966;BMP180;46834;51.100;6.886;2022-07-15T01:22:41;101748.00;;;23.90
60966;BMP180;46834;51.100;6.886;2022-07-15T01:25:08;101754.00;;;23.80
60966;BMP180;46834;51.100;6.886;2022-07-15T01:27:33;101739.00;;;23.80
60966;BMP180;46834;51.100;6.886;2022-07-15T01:30:00;101748.00;;;23.80
60966;BMP180;46834;51.100;6.886;2022-07-15T01:32:27;101741.00;;;23.70
60966;BMP180;46834;51.100;6.886;2022-07-15T01:34:53;101738.00;;;23.70
60966;BMP180;46834;51.100;6.886;2022-07-15T01:37:19;101748.00;;;23.70
60966;BMP180;46834;51.100;6.886;2022-07-15T01:39:45;101752.00;;;23.60
60966;BMP180;46834;51.100;6.886;2022-07-15T01:42:10;101755.00;;;23.60
60966;BMP180;46834;51.100;6.886;2022-07-15T01:44:36;101759.00;;;23.60
60966;BMP180;46834;51.100;6.886;2022-07-15T01:47:02;101754.00;;;23.60
60966;BMP180;46834;51.100;6.886;2022-07-15T01:49:28;101747.00;;;23.60
60966;BMP180;46834;51.100;6.886;2022-07-15T01:51:59;101758.00;;;23.50
60966;BMP180;46834;51.100;6.886;2022-07-15T01:54:28;101757.00;;;23.50
60966;BMP180;46834;51.100;6.886;2022-07-15T01:56:54;101759.00;;;23.50
60966;BMP180;46834;51.100;6.886;2022-07-15T01:59:21;101763.00;;;23.50
60966;BMP180;46834;51.100;6.886;2022-07-15T02:01:48;101744.00;;;23.50
60966;BMP180;46834;51.100;6.886;2022-07-15T02:04:15;101763.00;;;23.50
60966;BMP180;46834;51.100;6.886;2022-07-15T02:06:41;101754.00;;;23.50
60966;BMP180;46834;51.100;6.886;2022-07-15T02:09:08;101766.00;;;23.50
60966;BMP180;46834;51.100;6.886;2022-07-15T02:11:34;101763.00;;;23.50
60966;BMP180;46834;51.100;6.886;2022-07-15T02:14:00;101764.00;;;23.50
60966;BMP180;46834;51.100;6.886;2022-07-15T02:16:29;101758.00;;;23.50
60966;BMP180;46834;51.100;6.886;2022-07-15T02:18:55;101759.00;;;23.50
60966;BMP180;46834;51.100;6.886;2022-07-15T02:21:21;101763.00;;;23.50
60966;BMP180;46834;51.100;6.886;2022-07-15T02:23:47;101768.00;;;23.50
60966;BMP180;46834;51.100;6.886;2022-07-15T02:26:13;101757.00;;;23.50
60966;BMP180;46834;51.100;6.886;2022-07-15T02:28:39;101762.00;;;23.50
60966;BMP180;46834;51.100;6.886;2022-07-15T02:31:05;101757.00;;;23.50
60966;BMP180;46834;51.100;6.886;2022-07-15T02:33:31;101759.00;;;23.50
60966;BMP180;46834;51.100;6.886;2022-07-15T02:35:57;101752.00;;;23.50
60966;BMP180;46834;51.100;6.886;2022-07-15T02:38:23;101754.00;;;23.50
60966;BMP180;46834;51.100;6.886;2022-07-15T02:40:49;101756.00;;;23.50
60966;BMP180;46834;51.100;6.886;2022-07-15T02:43:15;101751.00;;;23.50
60966;BMP180;46834;51.100;6.886;2022-07-15T02:45:41;101752.00;;;23.50
60966;BMP180;46834;51.100;6.886;2022-07-15T02:48:08;101755.00;;;23.50
60966;BMP180;46834;51.100;6.886;2022-07-15T02:50:35;101747.00;;;23.50
60966;BMP180;46834;51.100;6.886;2022-07-15T02:53:02;101755.00;;;23.50
60966;BMP180;46834;51.100;6.886;2022-07-15T02:55:29;101758.00;;;23.50
60966;BMP180;46834;51.100;6.886;2022-07-15T02:57:54;101758.00;;;23.40
60966;BMP180;46834;51.100;6.886;2022-07-15T03:00:20;101764.00;;;23.40
60966;BMP180;46834;51.100;6.886;2022-07-15T03:02:47;101764.00;;;23.40
60966;BMP180;46834;51.100;6.886;2022-07-15T03:05:14;101762.00;;;23.40
60966;BMP180;46834;51.100;6.886;2022-07-15T03:07:40;101766.00;;;23.40
60966;BMP180;46834;51.100;6.886;2022-07-15T03:10:08;101767.00;;;23.30
60966;BMP180;46834;51.100;6.886;2022-07-15T03:12:35;101773.00;;;23.30
60966;BMP180;46834;51.100;6.886;2022-07-15T03:15:02;101764.00;;;23.30
60966;BMP180;46834;51.100;6.886;2022-07-15T03:17:28;101782.00;;;23.30
60966;BMP180;46834;51.100;6.886;2022-07-15T03:19:54;101774.00;;;23.20
60966;BMP180;46834;51.100;6.886;2022-07-15T03:22:24;101788.00;;;23.20
60966;BMP180;46834;51.100;6.886;2022-07-15T03:24:51;101791.00;;;23.20
60966;BMP180;46834;51.100;6.886;2022-07-15T03:27:17;101795.00;;;23.20
60966;BMP180;46834;51.100;6.886;2022-07-15T03:29:43;101793.00;;;23.10
60966;BMP180;46834;51.100;6.886;2022-07-15T03:32:09;101792.00;;;23.10
60966;BMP180;46834;51.100;6.886;2022-07-15T03:34:42;101788.00;;;23.10
60966;BMP180;46834;51.100;6.886;2022-07-15T03:37:09;101791.00;;;23.10
60966;BMP180;46834;51.100;6.886;2022-07-15T03:39:34;101787.00;;;23.00
60966;BMP180;46834;51.100;6.886;2022-07-15T03:42:00;101802.00;;;23.00
60966;BMP180;46834;51.100;6.886;2022-07-15T03:44:26;101811.00;;;23.00
60966;BMP180;46834;51.100;6.886;2022-07-15T03:46:52;101797.00;;;23.00
60966;BMP180;46834;51.100;6.886;2022-07-15T03:49:18;101791.00;;;23.00
60966;BMP180;46834;51.100;6.886;2022-07-15T03:51:44;101799.00;;;22.90
60966;BMP180;46834;51.100;6.886;2022-07-15T03:54:09;101806.00;;;22.90
60966;BMP180;46834;51.100;6.886;2022-07-15T03:56:35;101819.00;;;22.90
60966;BMP180;46834;51.100;6.886;2022-07-15T03:59:03;101815.00;;;22.90
60966;BMP180;46834;51.100;6.886;2022-07-15T04:01:29;101805.00;;;22.90
60966;BMP180;46834;51.100;6.886;2022-07-15T04:03:55;101823.00;;;22.90
60966;BMP180;46834;51.100;6.886;2022-07-15T04:06:21;101823.00;;;22.90
60966;BMP180;46834;51.100;6.886;2022-07-15T04:08:47;101821.00;;;22.90
60966;BMP180;46834;51.100;6.886;2022-07-15T04:11:14;101830.00;;;22.90
60966;BMP180;46834;51.100;6.886;2022-07-15T04:13:41;101834.00;;;22.90
60966;BMP180;46834;51.100;6.886;2022-07-15T04:16:08;101833.00;;;22.90
60966;BMP180;46834;51.100;6.886;2022-07-15T04:18:35;101842.00;;;22.90
60966;BMP180;46834;51.100;6.886;2022-07-15T04:21:01;101839.00;;;22.90
60966;BMP180;46834;51.100;6.886;2022-07-15T04:23:27;101832.00;;;22.90
60966;BMP180;46834;51.100;6.886;2022-07-15T04:25:54;101838.00;;;22.90
60966;BMP180;46834;51.100;6.886;2022-07-15T04:28:21;101848.00;;;22.90
60966;BMP180;46834;51.100;6.886;2022-07-15T04:30:48;101842.00;;;22.90
60966;BMP180;46834;51.100;6.886;2022-07-15T04:33:15;101852.00;;;22.90
60966;BMP180;46834;51.100;6.886;2022-07-15T04:35:41;101846.00;;;22.90
60966;BMP180;46834;51.100;6.886;2022-07-15T04:38:07;101860.00;;;22.90
60966;BMP180;46834;51.100;6.886;2022-07-15T04:40:34;101856.00;;;22.90
60966;BMP180;46834;51.100;6.886;2022-07-15T04:43:00;101858.00;;;22.90
60966;BMP180;46834;51.100;6.886;2022-07-15T04:45:27;101869.00;;;22.90
60966;BMP180;46834;51.100;6.886;2022-07-15T04:47:54;101863.00;;;22.90
60966;BMP180;46834;51.100;6.886;2022-07-15T04:50:20;101865.00;;;22.90
60966;BMP180;46834;51.100;6.886;2022-07-15T04:53:05;101852.00;;;22.90
60966;BMP180;46834;51.100;6.886;2022-07-15T04:55:32;101862.00;;;22.90
60966;BMP180;46834;51.100;6.886;2022-07-15T04:57:57;101869.00;;;22.90
60966;BMP180;46834;51.100;6.886;2022-07-15T05:00:23;101857.00;;;22.90
60966;BMP180;46834;51.100;6.886;2022-07-15T05:02:49;101870.00;;;23.00
60966;BMP180;46834;51.100;6.886;2022-07-15T05:05:15;101871.00;;;23.00
60966;BMP180;46834;51.100;6.886;2022-07-15T05:07:41;101873.00;;;22.90
60966;BMP180;46834;51.100;6.886;2022-07-15T05:10:07;101870.00;;;23.00
60966;BMP180;46834;51.100;6.886;2022-07-15T05:12:35;101862.00;;;23.00
60966;BMP180;46834;51.100;6.886;2022-07-15T05:15:01;101869.00;;;23.00
60966;BMP180;46834;51.100;6.886;2022-07-15T05:17:27;101873.00;;;23.00
60966;BMP180;46834;51.100;6.886;2022-07-15T05:19:53;101871.00;;;23.00
60966;BMP180;46834;51.100;6.886;2022-07-15T05:22:19;101876.00;;;23.00
60966;BMP180;46834;51.100;6.886;2022-07-15T05:24:45;101880.00;;;23.00
60966;BMP180;46834;51.100;6.886;2022-07-15T05:27:11;101871.00;;;23.00
60966;BMP180;46834;51.100;6.886;2022-07-15T05:29:37;101873.00;;;23.00
60966;BMP180;46834;51.100;6.886;2022-07-15T05:32:03;101873.00;;;23.00
60966;BMP180;46834;51.100;6.886;2022-07-15T05:34:29;101871.00;;;23.10
60966;BMP180;46834;51.100;6.886;2022-07-15T05:36:54;101862.00;;;23.10
60966;BMP180;46834;51.100;6.886;2022-07-15T05:39:20;101865.00;;;23.10
60966;BMP180;46834;51.100;6.886;2022-07-15T05:41:46;101872.00;;;23.20
60966;BMP180;46834;51.100;6.886;2022-07-15T05:44:12;101871.00;;;23.20
60966;BMP180;46834;51.100;6.886;2022-07-15T05:46:37;101874.00;;;23.20
60966;BMP180;46834;51.100;6.886;2022-07-15T05:49:03;101874.00;;;23.20
60966;BMP180;46834;51.100;6.886;2022-07-15T05:51:29;101875.00;;;23.30
60966;BMP180;46834;51.100;6.886;2022-07-15T05:53:55;101870.00;;;23.30
60966;BMP180;46834;51.100;6.886;2022-07-15T05:56:20;101882.00;;;23.40
60966;BMP180;46834;51.100;6.886;2022-07-15T05:58:47;101890.00;;;23.40
60966;BMP180;46834;51.100;6.886;2022-07-15T06:01:14;101882.00;;;23.40
60966;BMP180;46834;51.100;6.886;2022-07-15T06:03:39;101877.00;;;23.50
60966;BMP180;46834;51.100;6.886;2022-07-15T06:06:05;101885.00;;;23.60
60966;BMP180;46834;51.100;6.886;2022-07-15T06:08:32;101882.00;;;23.60
60966;BMP180;46834;51.100;6.886;2022-07-15T06:10:58;101884.00;;;23.60
60966;BMP180;46834;51.100;6.886;2022-07-15T06:13:24;101884.00;;;23.70
60966;BMP180;46834;51.100;6.886;2022-07-15T06:15:50;101889.00;;;23.80
60966;BMP180;46834;51.100;6.886;2022-07-15T06:18:17;101873.00;;;23.80
60966;BMP180;46834;51.100;6.886;2022-07-15T06:20:43;101880.00;;;23.90
60966;BMP180;46834;51.100;6.886;2022-07-15T06:23:08;101887.00;;;24.00
60966;BMP180;46834;51.100;6.886;2022-07-15T06:25:34;101886.00;;;24.30
60966;BMP180;46834;51.100;6.886;2022-07-15T06:27:59;101886.00;;;24.50
60966;BMP180;46834;51.100;6.886;2022-07-15T06:30:27;101896.00;;;24.80
60966;BMP180;46834;51.100;6.886;2022-07-15T06:32:52;101906.00;;;25.20
60966;BMP180;46834;51.100;6.886;2022-07-15T06:35:18;101904.00;;;25.50
60966;BMP180;46834;51.100;6.886;2022-07-15T06:37:44;101912.00;;;25.80
60966;BMP180;46834;51.100;6.886;2022-07-15T06:40:10;101898.00;;;26.30
60966;BMP180;46834;51.100;6.886;2022-07-15T06:42:36;101911.00;;;26.70
60966;BMP180;46834;51.100;6.886;2022-07-15T06:45:05;101926.00;;;27.20
60966;BMP180;46834;51.100;6.886;2022-07-15T06:47:31;101910.00;;;27.80
60966;BMP180;46834;51.100;6.886;2022-07-15T06:49:57;101923.00;;;28.30
60966;BMP180;46834;51.100;6.886;2022-07-15T06:52:23;101918.00;;;28.70
60966;BMP180;46834;51.100;6.886;2022-07-15T06:54:48;101925.00;;;29.00
60966;BMP180;46834;51.100;6.886;2022-07-15T06:57:14;101922.00;;;29.30
60966;BMP180;46834;51.100;6.886;2022-07-15T06:59:43;101926.00;;;29.70
60966;BMP180;46834;51.100;6.886;2022-07-15T07:02:09;101937.00;;;30.20
60966;BMP180;46834;51.100;6.886;2022-07-15T07:04:34;101945.00;;;30.60
60966;BMP180;46834;51.100;6.886;2022-07-15T07:07:00;101938.00;;;31.10
60966;BMP180;46834;51.100;6.886;2022-07-15T07:09:26;101936.00;;;31.50
60966;BMP180;46834;51.100;6.886;2022-07-15T07:11:52;101944.00;;;31.90
60966;BMP180;46834;51.100;6.886;2022-07-15T07:14:18;101948.00;;;32.30
60966;BMP180;46834;51.100;6.886;2022-07-15T07:16:44;101951.00;;;32.70
60966;BMP180;46834;51.100;6.886;2022-07-15T07:19:11;101960.00;;;33.20
60966;BMP180;46834;51.100;6.886;2022-07-15T07:21:37;101961.00;;;33.60
60966;BMP180;46834;51.100;6.886;2022-07-15T07:24:03;101959.00;;;34.10
60966;BMP180;46834;51.100;6.886;2022-07-15T07:26:29;101958.00;;;34.50
60966;BMP180;46834;51.100;6.886;2022-07-15T07:28:54;101966.00;;;35.00
60966;BMP180;46834;51.100;6.886;2022-07-15T07:31:20;101956.00;;;35.40
60966;BMP180;46834;51.100;6.886;2022-07-15T07:33:55;101970.00;;;35.90
60966;BMP180;46834;51.100;6.886;2022-07-15T07:36:21;101962.00;;;36.30
60966;BMP180;46834;51.100;6.886;2022-07-15T07:38:47;101963.00;;;36.70
60966;BMP180;46834;51.100;6.886;2022-07-15T07:41:13;101966.00;;;37.10
60966;BMP180;46834;51.100;6.886;2022-07-15T07:43:38;101966.00;;;37.40
60966;BMP180;46834;51.100;6.886;2022-07-15T07:46:05;101970.00;;;37.70
60966;BMP180;46834;51.100;6.886;2022-07-15T07:48:31;101960.00;;;37.80
60966;BMP180;46834;51.100;6.886;2022-07-15T07:50:57;101975.00;;;37.90
60966;BMP180;46834;51.100;6.886;2022-07-15T07:53:23;101974.00;;;37.70
60966;BMP180;46834;51.100;6.886;2022-07-15T07:55:50;101959.00;;;37.40
60966;BMP180;46834;51.100;6.886;2022-07-15T07:58:16;101960.00;;;37.10
60966;BMP180;46834;51.100;6.886;2022-07-15T08:00:44;101970.00;;;36.70
60966;BMP180;46834;51.100;6.886;2022-07-15T08:03:10;101961.00;;;36.30
60966;BMP180;46834;51.100;6.886;2022-07-15T08:05:36;101962.00;;;35.90
60966;BMP180;46834;51.100;6.886;2022-07-15T08:08:17;101956.00;;;35.30
60966;BMP180;46834;51.100;6.886;2022-07-15T08:10:48;101961.00;;;34.90
60966;BMP180;46834;51.100;6.886;2022-07-15T08:13:16;101937.00;;;34.50
60966;BMP180;46834;51.100;6.886;2022-07-15T08:15:43;101956.00;;;34.10
60966;BMP180;46834;51.100;6.886;2022-07-15T08:18:09;101957.00;;;33.70
60966;BMP180;46834;51.100;6.886;2022-07-15T08:20:35;101962.00;;;33.30
60966;BMP180;46834;51.100;6.886;2022-07-15T08:23:03;101955.00;;;32.90
60966;BMP180;46834;51.100;6.886;2022-07-15T08:25:32;101953.00;;;32.50
60966;BMP180;46834;51.100;6.886;2022-07-15T08:28:00;101953.00;;;32.20
60966;BMP180;46834;51.100;6.886;2022-07-15T08:30:27;101961.00;;;31.90
60966;BMP180;46834;51.100;6.886;2022-07-15T08:32:53;101961.00;;;31.70
60966;BMP180;46834;51.100;6.886;2022-07-15T08:35:21;101957.00;;;31.40
60966;BMP180;46834;51.100;6.886;2022-07-15T08:37:47;101951.00;;;31.10
60966;BMP180;46834;51.100;6.886;2022-07-15T08:40:14;101943.00;;;30.90
60966;BMP180;46834;51.100;6.886;2022-07-15T08:42:40;101946.00;;;30.70
60966;BMP180;46834;51.100;6.886;2022-07-15T08:45:14;101930.00;;;30.50
60966;BMP180;46834;51.100;6.886;2022-07-15T08:47:44;101958.00;;;30.30
60966;BMP180;46834;51.100;6.886;2022-07-15T08:50:15;101949.00;;;30.20
60966;BMP180;46834;51.100;6.886;2022-07-15T08:52:44;101953.00;;;30.10
60966;BMP180;46834;51.100;6.886;2022-07-15T08:55:10;101955.00;;;30.00
60966;BMP180;46834;51.100;6.886;2022-07-15T08:57:37;101954.00;;;30.00
60966;BMP180;46834;51.100;6.886;2022-07-15T09:00:06;101960.00;;;29.80
60966;BMP180;46834;51.100;6.886;2022-07-15T09:02:35;101954.00;;;29.80
60966;BMP180;46834;51.100;6.886;2022-07-15T09:05:36;101943.00;;;29.60
60966;BMP180;46834;51.100;6.886;2022-07-15T09:08:09;101943.00;;;29.60
60966;BMP180;46834;51.100;6.886;2022-07-15T09:10:59;101940.00;;;29.50
60966;BMP180;46834;51.100;6.886;2022-07-15T09:13:40;101939.00;;;29.50
60966;BMP180;46834;51.100;6.886;2022-07-15T09:16:08;101948.00;;;29.50
60966;BMP180;46834;51.100;6.886;2022-07-15T09:18:42;101950.00;;;29.40
60966;BMP180;46834;51.100;6.886;2022-07-15T09:21:24;101942.00;;;29.40
60966;BMP180;46834;51.100;6.886;2022-07-15T09:23:52;101942.00;;;29.40
60966;BMP180;46834;51.100;6.886;2022-07-15T09:26:35;101930.00;;;29.30
60966;BMP180;46834;51.100;6.886;2022-07-15T09:29:05;101940.00;;;29.30
60966;BMP180;46834;51.100;6.886;2022-07-15T09:31:57;101937.00;;;29.20
60966;BMP180;46834;51.100;6.886;2022-07-15T09:35:06;101942.00;;;29.20
60966;BMP180;46834;51.100;6.886;2022-07-15T09:37:59;101930.00;;;29.10
60966;BMP180;46834;51.100;6.886;2022-07-15T09:40:25;101929.00;;;29.20
60966;BMP180;46834;51.100;6.886;2022-07-15T09:43:04;101928.00;;;29.10
60966;BMP180;46834;51.100;6.886;2022-07-15T09:45:33;101930.00;;;29.10
60966;BMP180;46834;51.100;6.886;2022-07-15T09:48:11;101937.00;;;29.00
60966;BMP180;46834;51.100;6.886;2022-07-15T09:50:41;101930.00;;;29.10
60966;BMP180;46834;51.100;6.886;2022-07-15T09:53:12;101930.00;;;29.10
60966;BMP180;46834;51.100;6.886;2022-07-15T09:55:40;101940.00;;;29.10
60966;BMP180;46834;51.100;6.886;2022-07-15T09:58:07;101931.00;;;29.10
60966;BMP180;46834;51.100;6.886;2022-07-15T10:00:35;101935.00;;;29.00
60966;BMP180;46834;51.100;6.886;2022-07-15T10:03:02;101938.00;;;29.00
60966;BMP180;46834;51.100;6.886;2022-07-15T10:05:29;101934.00;;;29.00
60966;BMP180;46834;51.100;6.886;2022-07-15T10:08:02;101934.00;;;28.90
60966;BMP180;46834;51.100;6.886;2022-07-15T10:10:33;101932.00;;;28.90
60966;BMP180;46834;51.100;6.886;2022-07-15T10:13:23;101931.00;;;28.90
60966;BMP180;46834;51.100;6.886;2022-07-15T10:31:19;101908.00;;;28.70
60966;BMP180;46834;51.100;6.886;2022-07-15T10:39:21;101907.00;;;28.70
60966;BMP180;46834;51.100;6.886;2022-07-15T10:41:59;101913.00;;;28.70
60966;BMP180;46834;51.100;6.886;2022-07-15T10:44:37;101899.00;;;28.70
60966;BMP180;46834;51.100;6.886;2022-07-15T10:49:40;101897.00;;;28.60
60966;BMP180;46834;51.100;6.886;2022-07-15T10:52:13;101898.00;;;28.60
60966;BMP180;46834;51.100;6.886;2022-07-15T11:00:32;101904.00;;;28.60
60966;BMP180;46834;51.100;6.886;2022-07-15T11:13:49;101892.00;;;28.80
60966;BMP180;46834;51.100;6.886;2022-07-15T11:16:19;101886.00;;;28.80
60966;BMP180;46834;51.100;6.886;2022-07-15T11:18:56;101884.00;;;28.80
60966;BMP180;46834;51.100;6.886;2022-07-15T11:21:23;101886.00;;;28.90
60966;BMP180;46834;51.100;6.886;2022-07-15T11:23:51;101874.00;;;28.90
60966;BMP180;46834;51.100;6.886;2022-07-15T11:26:20;101871.00;;;28.90
60966;BMP180;46834;51.100;6.886;2022-07-15T11:28:55;101848.00;;;28.90
60966;BMP180;46834;51.100;6.886;2022-07-15T11:31:22;101863.00;;;29.00
60966;BMP180;46834;51.100;6.886;2022-07-15T11:33:52;101853.00;;;29.00
60966;BMP180;46834;51.100;6.886;2022-07-15T11:36:20;101862.00;;;29.00
60966;BMP180;46834;51.100;6.886;2022-07-15T11:38:50;101852.00;;;29.10
60966;BMP180;46834;51.100;6.886;2022-07-15T11:41:16;101863.00;;;29.10
60966;BMP180;46834;51.100;6.886;2022-07-15T11:44:10;101862.00;;;29.00
60966;BMP180;46834;51.100;6.886;2022-07-15T11:46:57;101857.00;;;29.10
60966;BMP180;46834;51.100;6.886;2022-07-15T11:49:31;101857.00;;;29.00
60966;BMP180;46834;51.100;6.886;2022-07-15T11:52:00;101858.00;;;29.10
60966;BMP180;46834;51.100;6.886;2022-07-15T11:54:27;101853.00;;;29.10
60966;BMP180;46834;51.100;6.886;2022-07-15T11:56:58;101846.00;;;29.10
60966;BMP180;46834;51.100;6.886;2022-07-15T11:59:24;101837.00;;;29.10
60966;BMP180;46834;51.100;6.886;2022-07-15T12:04:29;101848.00;;;29.10
60966;BMP180;46834;51.100;6.886;2022-07-15T12:06:56;101851.00;;;29.10
60966;BMP180;46834;51.100;6.886;2022-07-15T12:09:22;101844.00;;;29.10
60966;BMP180;46834;51.100;6.886;2022-07-15T12:11:47;101837.00;;;29.10
60966;BMP180;46834;51.100;6.886;2022-07-15T12:14:20;101846.00;;;29.10
60966;BMP180;46834;51.100;6.886;2022-07-15T12:16:52;101837.00;;;29.10
60966;BMP180;46834;51.100;6.886;2022-07-15T12:19:20;101839.00;;;29.10
60966;BMP180;46834;51.100;6.886;2022-07-15T12:21:49;101840.00;;;29.20
60966;BMP180;46834;51.100;6.886;2022-07-15T12:24:26;101845.00;;;29.20
60966;BMP180;46834;51.100;6.886;2022-07-15T12:27:01;101849.00;;;29.20
60966;BMP180;46834;51.100;6.886;2022-07-15T12:29:31;101836.00;;;29.20
60966;BMP180;46834;51.100;6.886;2022-07-15T12:32:15;101847.00;;;29.10
60966;BMP180;46834;51.100;6.886;2022-07-15T12:37:47;101842.00;;;29.10
60966;BMP180;46834;51.100;6.886;2022-07-15T12:40:20;101835.00;;;29.10
60966;BMP180;46834;51.100;6.886;2022-07-15T12:42:50;101840.00;;;29.10
60966;BMP180;46834;51.100;6.886;2022-07-15T12:45:27;101830.00;;;29.00
60966;BMP180;46834;51.100;6.886;2022-07-15T12:53:15;101849.00;;;29.10
60966;BMP180;46834;51.100;6.886;2022-07-15T12:55:48;101849.00;;;29.10
60966;BMP180;46834;51.100;6.886;2022-07-15T12:58:25;101844.00;;;29.00
60966;BMP180;46834;51.100;6.886;2022-07-15T13:00:51;101850.00;;;29.10
60966;BMP180;46834;51.100;6.886;2022-07-15T13:03:21;101847.00;;;29.00
60966;BMP180;46834;51.100;6.886;2022-07-15T13:05:51;101850.00;;;29.10
60966;BMP180;46834;51.100;6.886;2022-07-15T13:08:21;101844.00;;;29.10
60966;BMP180;46834;51.100;6.886;2022-07-15T13:10:51;101850.00;;;29.10
60966;BMP180;46834;51.100;6.886;2022-07-15T13:13:20;101841.00;;;29.10
60966;BMP180;46834;51.100;6.886;2022-07-15T13:15:47;101843.00;;;29.20
60966;BMP180;46834;51.100;6.886;2022-07-15T13:18:15;101828.00;;;29.20
60966;BMP180;46834;51.100;6.886;2022-07-15T13:20:42;101833.00;;;29.20
60966;BMP180;46834;51.100;6.886;2022-07-15T13:23:08;101824.00;;;29.30
60966;BMP180;46834;51.100;6.886;2022-07-15T13:25:34;101826.00;;;29.30
60966;BMP180;46834;51.100;6.886;2022-07-15T13:28:04;101824.00;;;29.30
60966;BMP180;46834;51.100;6.886;2022-07-15T13:30:30;101836.00;;;29.30
60966;BMP180;46834;51.100;6.886;2022-07-15T13:32:56;101832.00;;;29.20
60966;BMP180;46834;51.100;6.886;2022-07-15T13:35:22;101832.00;;;29.20
60966;BMP180;46834;51.100;6.886;2022-07-15T13:37:48;101827.00;;;29.20
60966;BMP180;46834;51.100;6.886;2022-07-15T13:40:14;101817.00;;;29.20
60966;BMP180;46834;51.100;6.886;2022-07-15T13:42:41;101819.00;;;29.20
60966;BMP180;46834;51.100;6.886;2022-07-15T13:45:10;101822.00;;;29.10
60966;BMP180;46834;51.100;6.886;2022-07-15T13:47:36;101827.00;;;29.10
60966;BMP180;46834;51.100;6.886;2022-07-15T13:50:04;101825.00;;;29.10
60966;BMP180;46834;51.100;6.886;2022-07-15T13:52:51;101828.00;;;29.10
60966;BMP180;46834;51.100;6.886;2022-07-15T13:55:19;101824.00;;;29.00
60966;BMP180;46834;51.100;6.886;2022-07-15T13:57:46;101823.00;;;29.00
60966;BMP180;46834;51.100;6.886;2022-07-15T14:00:16;101827.00;;;28.90
60966;BMP180;46834;51.100;6.886;2022-07-15T14:02:44;101823.00;;;29.00
60966;BMP180;46834;51.100;6.886;2022-07-15T14:05:14;101810.00;;;29.00
60966;BMP180;46834;51.100;6.886;2022-07-15T14:07:40;101815.00;;;29.00
60966;BMP180;46834;51.100;6.886;2022-07-15T14:10:07;101817.00;;;29.00
60966;BMP180;46834;51.100;6.886;2022-07-15T14:12:34;101818.00;;;29.00
60966;BMP180;46834;51.100;6.886;2022-07-15T14:15:00;101817.00;;;29.00
60966;BMP180;46834;51.100;6.886;2022-07-15T14:17:27;101819.00;;;29.00
60966;BMP180;46834;51.100;6.886;2022-07-15T14:19:55;101820.00;;;29.10
60966;BMP180;46834;51.100;6.886;2022-07-15T14:22:22;101815.00;;;29.10
60966;BMP180;46834;51.100;6.886;2022-07-15T14:24:48;101821.00;;;29.20
60966;BMP180;46834;51.100;6.886;2022-07-15T14:27:13;101814.00;;;29.10
60966;BMP180;46834;51.100;6.886;2022-07-15T14:29:40;101819.00;;;29.10
60966;BMP180;46834;51.100;6.886;2022-07-15T14:32:06;101816.00;;;29.10
60966;BMP180;46834;51.100;6.886;2022-07-15T14:34:31;101822.00;;;29.10
60966;BMP180;46834;51.100;6.886;2022-07-15T14:36:57;101814.00;;;29.10
60966;BMP180;46834;51.100;6.886;2022-07-15T14:39:23;101812.00;;;29.10
60966;BMP180;46834;51.100;6.886;2022-07-15T14:41:50;101803.00;;;29.10
60966;BMP180;46834;51.100;6.886;2022-07-15T14:44:16;101802.00;;;29.10
60966;BMP180;46834;51.100;6.886;2022-07-15T14:46:41;101803.00;;;29.10
60966;BMP180;46834;51.100;6.886;2022-07-15T14:49:07;101798.00;;;29.20
60966;BMP180;46834;51.100;6.886;2022-07-15T14:51:33;101794.00;;;29.20
60966;BMP180;46834;51.100;6.886;2022-07-15T14:53:59;101802.00;;;29.20